createdAt,value
2023-01-07T00:01:03.740Z,93.50
2023-01-07T00:03:34.687Z,93.50
2023-01-07T00:06:11.360Z,93.60
2023-01-07T00:08:43.652Z,93.50
2023-01-07T00:11:17.832Z,93.60
2023-01-07T00:13:50.804Z,93.50
2023-01-07T00:16:24.783Z,93.50
2023-01-07T00:18:57.458Z,93.50
2023-01-07T00:21:29.621Z,93.50
2023-01-07T00:24:20.194Z,93.50
2023-01-07T00:26:50.862Z,93.50
2023-01-07T00:29:22.686Z,93.50
2023-01-07T00:31:55.074Z,93.50
2023-01-07T00:34:26.825Z,93.40
2023-01-07T00:37:17.504Z,93.40
2023-01-07T00:39:48.531Z,93.40
2023-01-07T00:42:37.388Z,93.40
2023-01-07T00:45:08.625Z,93.40
2023-01-07T00:48:01.140Z,93.40
2023-01-07T00:50:36.484Z,93.40
2023-01-07T00:53:07.805Z,93.50
2023-01-07T00:55:58.647Z,93.50
2023-01-07T00:58:29.838Z,93.40
2023-01-07T01:01:03.098Z,93.40
2023-01-07T01:03:35.558Z,93.30
2023-01-07T01:06:11.487Z,93.20
2023-01-07T01:08:47.499Z,93.20
2023-01-07T01:11:19.394Z,93.10
2023-01-07T01:13:50.206Z,93.10
2023-01-07T01:16:23.652Z,93.00
2023-01-07T01:18:54.447Z,93.00
2023-01-07T01:21:26.353Z,93.00
2023-01-07T01:23:57.559Z,93.00
2023-01-07T01:26:28.302Z,92.90
2023-01-07T01:28:58.997Z,93.00
2023-01-07T01:31:30.004Z,93.10
2023-01-07T01:34:01.467Z,93.10
2023-01-07T01:36:32.206Z,93.40
2023-01-07T01:39:06.356Z,93.00
2023-01-07T01:41:38.839Z,93.20
2023-01-07T01:44:36.071Z,93.30
2023-01-07T01:47:16.322Z,93.10
2023-01-07T01:49:59.713Z,93.10
2023-01-07T01:52:48.748Z,93.00
2023-01-07T01:55:23.668Z,92.90
2023-01-07T01:58:02.453Z,93.00
2023-01-07T02:00:34.504Z,93.00
2023-01-07T02:03:08.241Z,92.90
2023-01-07T02:05:41.995Z,92.80
2023-01-07T02:08:16.501Z,92.80
2023-01-07T02:10:47.830Z,92.60
2023-01-07T02:13:26.225Z,92.80
2023-01-07T02:16:11.431Z,92.60
2023-01-07T02:18:48.307Z,92.50
2023-01-07T02:21:55.860Z,92.80
2023-01-07T02:24:50.894Z,92.60
2023-01-07T02:27:54.769Z,92.30
2023-01-07T02:30:32.206Z,92.40
2023-01-07T02:33:36.704Z,92.40
2023-01-07T02:36:29.225Z,92.30
2023-01-07T02:39:12.554Z,92.40
2023-01-07T02:42:03.878Z,92.20
2023-01-07T02:45:29.685Z,92.00
2023-01-07T02:48:10.095Z,91.90
2023-01-07T02:50:40.928Z,91.80
2023-01-07T02:53:32.499Z,92.00
2023-01-07T02:56:33.471Z,92.20
2023-01-07T02:59:10.081Z,92.10
2023-01-07T03:02:08.023Z,92.10
2023-01-07T03:04:39.751Z,92.20
2023-01-07T03:07:25.255Z,92.30
2023-01-07T03:10:28.587Z,92.20
2023-01-07T03:13:18.623Z,92.20
2023-01-07T03:16:06.528Z,92.20
2023-01-07T03:18:45.714Z,92.30
2023-01-07T03:21:39.390Z,92.20
2023-01-07T03:24:10.781Z,92.20
2023-01-07T03:26:47.370Z,92.20
2023-01-07T03:29:21.317Z,92.20
2023-01-07T03:32:18.098Z,92.10
2023-01-07T03:34:50.447Z,92.10
2023-01-07T03:37:27.850Z,92.10
2023-01-07T03:40:01.835Z,92.10
2023-01-07T03:42:44.583Z,92.10
2023-01-07T03:45:42.477Z,92.00
2023-01-07T03:48:13.518Z,92.10
2023-01-07T03:50:44.437Z,92.00
2023-01-07T03:53:15.439Z,92.00
2023-01-07T03:55:49.425Z,92.00
2023-01-07T03:58:20.398Z,91.90
2023-01-07T04:00:51.246Z,92.00
2023-01-07T04:06:10.560Z,91.90
2023-01-07T04:08:41.660Z,91.90
2023-01-07T04:11:12.433Z,91.90
2023-01-07T04:13:43.490Z,91.90
2023-01-07T04:16:19.133Z,91.90
2023-01-07T04:18:50.262Z,91.90
2023-01-07T04:21:21.362Z,91.90
2023-01-07T04:23:53.850Z,91.90
2023-01-07T04:26:25.027Z,91.90
2023-01-07T04:28:57.325Z,91.80
2023-01-07T04:31:29.571Z,91.80
2023-01-07T04:34:01.214Z,91.80
2023-01-07T04:36:32.155Z,91.80
2023-01-07T04:39:04.195Z,91.80
2023-01-07T04:41:37.369Z,91.80
2023-01-07T04:44:13.313Z,91.80
2023-01-07T04:46:52.754Z,91.80
2023-01-07T04:49:25.262Z,91.80
2023-01-07T04:51:57.528Z,91.70
2023-01-07T04:54:28.907Z,91.70
2023-01-07T04:57:00.034Z,91.70
2023-01-07T04:59:31.571Z,91.70
2023-01-07T05:02:30.979Z,91.70
2023-01-07T05:05:02.940Z,91.70
2023-01-07T05:07:34.421Z,91.70
2023-01-07T05:10:06.438Z,91.60
2023-01-07T05:12:39.501Z,91.60
2023-01-07T05:15:19.101Z,91.60
2023-01-07T05:17:51.182Z,91.60
2023-01-07T05:20:22.553Z,91.60
2023-01-07T05:22:59.897Z,91.60
2023-01-07T05:25:31.244Z,91.60
2023-01-07T05:28:03.248Z,91.50
2023-01-07T05:30:36.527Z,91.50
2023-01-07T05:33:08.835Z,91.50
2023-01-07T05:35:40.513Z,91.50
2023-01-07T05:38:12.796Z,91.50
2023-01-07T05:40:57.777Z,91.50
2023-01-07T05:43:31.053Z,91.50
2023-01-07T05:46:02.227Z,91.50
2023-01-07T05:48:34.933Z,91.50
2023-01-07T05:51:07.509Z,91.40
2023-01-07T05:53:41.883Z,91.40
2023-01-07T05:56:13.091Z,91.40
2023-01-07T05:58:44.844Z,91.40
2023-01-07T06:01:15.971Z,91.30
2023-01-07T06:03:47.343Z,91.30
2023-01-07T06:06:18.641Z,91.40
2023-01-07T06:08:49.821Z,91.40
2023-01-07T06:11:20.900Z,91.30
2023-01-07T06:13:52.047Z,91.40
2023-01-07T06:16:25.073Z,91.30
2023-01-07T06:18:59.228Z,91.30
2023-01-07T06:21:30.795Z,91.30
2023-01-07T06:24:21.565Z,91.30
2023-01-07T06:26:53.784Z,91.20
2023-01-07T06:29:24.969Z,91.20
2023-01-07T06:31:56.112Z,91.20
2023-01-07T06:34:27.215Z,91.20
2023-01-07T06:36:58.947Z,91.20
2023-01-07T06:39:49.664Z,91.20
2023-01-07T06:42:20.763Z,91.10
2023-01-07T06:44:52.415Z,91.10
2023-01-07T06:47:23.705Z,91.10
2023-01-07T06:49:55.143Z,91.10
2023-01-07T06:55:15.196Z,91.10
2023-01-07T06:57:49.352Z,91.10
2023-01-07T07:00:20.231Z,91.10
2023-01-07T07:03:11.100Z,91.00
2023-01-07T07:05:42.430Z,91.10
2023-01-07T07:08:13.434Z,91.00
2023-01-07T07:10:44.458Z,91.00
2023-01-07T07:13:20.269Z,91.00
2023-01-07T07:15:52.172Z,91.00
2023-01-07T07:18:26.542Z,90.90
2023-01-07T07:20:58.218Z,90.90
2023-01-07T07:23:29.944Z,90.90
2023-01-07T07:26:00.677Z,90.80
2023-01-07T07:28:32.859Z,90.80
2023-01-07T07:31:06.867Z,90.90
2023-01-07T07:33:38.319Z,90.90
2023-01-07T07:36:09.749Z,90.80
2023-01-07T07:38:46.002Z,91.20
2023-01-07T07:41:23.917Z,90.80
2023-01-07T07:43:55.001Z,90.80
2023-01-07T07:46:26.145Z,90.80
2023-01-07T07:48:57.119Z,90.80
2023-01-07T07:51:28.177Z,90.80
2023-01-07T07:54:21.316Z,90.80
2023-01-07T07:56:54.165Z,90.70
2023-01-07T07:59:25.077Z,90.70
2023-01-07T08:01:56.288Z,90.70
2023-01-07T08:04:30.390Z,90.70
2023-01-07T08:07:03.066Z,90.70
2023-01-07T08:09:34.058Z,90.60
2023-01-07T08:12:06.344Z,90.60
2023-01-07T08:14:38.491Z,90.60
2023-01-07T08:17:19.911Z,90.60
2023-01-07T08:19:51.022Z,90.60
2023-01-07T08:22:22.186Z,90.60
2023-01-07T08:25:14.168Z,90.60
2023-01-07T08:27:45.244Z,90.60
2023-01-07T08:30:17.447Z,90.50
2023-01-07T08:32:49.393Z,90.60
2023-01-07T08:35:23.663Z,90.50
2023-01-07T08:37:55.648Z,90.50
2023-01-07T08:40:26.854Z,90.50
2023-01-07T08:43:03.791Z,90.60
2023-01-07T08:45:35.175Z,90.50
2023-01-07T08:48:06.812Z,90.50
2023-01-07T08:50:37.859Z,90.50
2023-01-07T08:53:09.024Z,90.50
2023-01-07T08:55:42.495Z,90.50
2023-01-07T08:58:13.886Z,90.50
2023-01-07T09:00:45.507Z,90.40
2023-01-07T09:03:18.326Z,90.40
2023-01-07T09:05:50.133Z,90.40
2023-01-07T09:08:21.250Z,90.30
2023-01-07T09:10:57.829Z,90.30
2023-01-07T09:13:30.063Z,90.20
2023-01-07T09:16:02.671Z,90.20
2023-01-07T09:18:34.857Z,90.20
2023-01-07T09:21:10.032Z,90.30
2023-01-07T09:26:31.532Z,90.40
2023-01-07T09:29:03.619Z,90.50
2023-01-07T09:31:34.739Z,90.40
2023-01-07T09:36:54.622Z,90.50
2023-01-07T09:42:56.777Z,90.60
2023-01-07T09:45:51.680Z,90.60
2023-01-07T09:48:39.309Z,90.60
2023-01-07T09:51:24.748Z,90.70
2023-01-07T09:53:59.941Z,90.70
2023-01-07T09:56:34.434Z,90.70
2023-01-07T09:59:09.936Z,90.70
2023-01-07T10:01:58.310Z,90.90
2023-01-07T10:05:42.235Z,90.80
2023-01-07T10:11:30.245Z,90.80
2023-01-07T10:14:15.955Z,90.70
2023-01-07T10:17:16.636Z,90.70
2023-01-07T10:19:59.413Z,90.70
2023-01-07T10:22:53.046Z,90.80
2023-01-07T10:25:47.744Z,90.80
2023-01-07T10:28:51.258Z,90.70
2023-01-07T10:34:24.281Z,90.70
2023-01-07T10:37:00.435Z,90.70
2023-01-07T10:39:44.810Z,90.70
2023-01-07T10:42:34.045Z,90.80
2023-01-07T10:45:44.986Z,90.80
2023-01-07T10:48:42.745Z,90.80
2023-01-07T10:51:36.580Z,90.70
2023-01-07T10:54:37.401Z,90.70
2023-01-07T10:57:30.639Z,90.70
2023-01-07T11:00:06.286Z,90.80
2023-01-07T11:02:40.928Z,90.80
2023-01-07T11:05:15.287Z,90.80
2023-01-07T11:10:40.424Z,91.20
2023-01-07T11:13:23.259Z,90.90
2023-01-07T11:16:01.602Z,91.60
2023-01-07T11:18:56.855Z,91.20
2023-01-07T11:21:50.601Z,91.10
2023-01-07T11:24:37.280Z,91.20
2023-01-07T11:27:18.994Z,91.10
2023-01-07T11:30:13.745Z,91.20
2023-01-07T11:33:01.430Z,91.10
2023-01-07T11:35:35.611Z,91.00
2023-01-07T11:38:26.062Z,91.10
2023-01-07T11:41:02.408Z,91.00
2023-01-07T11:43:41.329Z,91.00
2023-01-07T11:46:19.858Z,91.00
2023-01-07T11:49:05.248Z,91.00
2023-01-07T11:51:44.372Z,91.10
2023-01-07T11:54:41.744Z,91.10
2023-01-07T11:57:29.342Z,91.00
2023-01-07T12:00:21.831Z,91.00
2023-01-07T12:03:05.613Z,91.10
2023-01-07T12:05:38.291Z,91.10
2023-01-07T12:08:18.894Z,91.10
2023-01-07T12:10:58.299Z,91.10
2023-01-07T12:13:31.770Z,91.10
2023-01-07T12:16:10.051Z,91.00
2023-01-07T12:18:47.163Z,91.10
2023-01-07T12:21:37.955Z,91.10
2023-01-07T12:24:24.164Z,91.10
2023-01-07T12:27:13.950Z,91.10
2023-01-07T12:30:21.937Z,91.10
2023-01-07T12:33:09.293Z,91.00
2023-01-07T12:35:59.376Z,91.00
2023-01-07T12:38:47.227Z,91.00
2023-01-07T12:41:34.151Z,91.00
2023-01-07T12:44:20.662Z,91.00
2023-01-07T12:47:31.355Z,91.00
2023-01-07T12:50:36.516Z,91.00
2023-01-07T12:53:15.460Z,91.10
2023-01-07T12:56:00.948Z,91.00
2023-01-07T12:58:47.457Z,91.00
2023-01-07T13:02:08.362Z,91.00
2023-01-07T13:04:48.475Z,91.00
2023-01-07T13:07:31.343Z,91.00
2023-01-07T13:10:28.516Z,91.00
2023-01-07T13:13:21.595Z,91.00
2023-01-07T13:16:03.599Z,90.90
2023-01-07T13:18:37.922Z,90.90
2023-01-07T13:21:18.573Z,91.00
2023-01-07T13:23:57.378Z,90.90
2023-01-07T13:26:53.915Z,91.10
2023-01-07T13:29:32.701Z,91.00
2023-01-07T13:32:13.973Z,90.90
2023-01-07T13:35:12.265Z,91.00
2023-01-07T13:38:23.357Z,90.90
2023-01-07T13:41:36.983Z,91.00
2023-01-07T13:47:07.372Z,91.00
2023-01-07T13:49:56.661Z,91.00
2023-01-07T13:52:32.697Z,91.00
2023-01-07T13:55:24.778Z,91.10
2023-01-07T13:57:55.949Z,91.00
2023-01-07T14:00:42.588Z,91.10
2023-01-07T14:03:29.244Z,91.00
2023-01-07T14:06:23.745Z,91.00
2023-01-07T14:09:01.352Z,91.00
2023-01-07T14:11:34.115Z,91.00
2023-01-07T14:14:42.987Z,91.10
2023-01-07T14:17:58.309Z,91.10
2023-01-07T14:23:59.922Z,91.10
2023-01-07T14:26:41.166Z,91.10
2023-01-07T14:29:45.712Z,91.00
2023-01-07T14:32:47.161Z,91.10
2023-01-07T14:35:57.332Z,91.00
2023-01-07T14:41:22.048Z,91.10
2023-01-07T14:44:10.144Z,91.10
2023-01-07T14:46:46.693Z,91.10
2023-01-07T14:49:30.421Z,91.10
2023-01-07T14:52:24.370Z,91.00
2023-01-07T14:55:20.940Z,91.10
2023-01-07T15:01:24.482Z,91.10
2023-01-07T15:04:18.574Z,91.10
2023-01-07T15:07:23.755Z,91.00
2023-01-07T15:10:35.154Z,91.20
2023-01-07T15:13:30.625Z,91.20
2023-01-07T15:16:06.815Z,91.10
2023-01-07T15:19:06.057Z,91.00
2023-01-07T15:21:55.849Z,91.20
2023-01-07T15:25:05.213Z,91.10
2023-01-07T15:28:19.608Z,91.10
2023-01-07T15:31:07.361Z,91.10
2023-01-07T15:34:04.187Z,91.40
2023-01-07T15:36:48.426Z,91.10
2023-01-07T15:39:23.527Z,91.20
2023-01-07T15:42:18.094Z,91.20
2023-01-07T15:44:55.956Z,91.20
2023-01-07T15:47:44.649Z,91.20
2023-01-07T15:50:26.612Z,91.20
2023-01-07T15:53:19.761Z,91.20
2023-01-07T15:56:00.530Z,91.10
2023-01-07T15:58:37.640Z,91.10
2023-01-07T16:01:13.949Z,91.10
2023-01-07T16:03:51.789Z,91.10
2023-01-07T16:06:47.523Z,91.20
2023-01-07T16:09:23.916Z,91.10
2023-01-07T16:12:04.262Z,91.10
2023-01-07T16:14:39.051Z,91.10
2023-01-07T16:17:17.253Z,91.20
2023-01-07T16:19:50.412Z,91.10
2023-01-07T16:22:33.649Z,91.10
2023-01-07T16:25:17.890Z,91.20
2023-01-07T16:27:58.712Z,91.20
2023-01-07T16:30:31.122Z,91.20
2023-01-07T16:33:04.871Z,91.20
2023-01-07T16:35:48.518Z,91.10
2023-01-07T16:38:24.907Z,91.10
2023-01-07T16:40:58.081Z,91.20
2023-01-07T16:43:40.983Z,91.20
2023-01-07T16:49:31.793Z,91.10
2023-01-07T16:52:35.263Z,91.20
2023-01-07T16:55:26.252Z,91.10
2023-01-07T16:57:58.375Z,91.20
2023-01-07T17:00:29.565Z,91.10
2023-01-07T17:03:02.270Z,91.20
2023-01-07T17:05:35.287Z,91.20
2023-01-07T17:08:10.713Z,91.20
2023-01-07T17:10:43.018Z,91.20
2023-01-07T17:13:16.715Z,91.20
2023-01-07T17:15:47.356Z,91.20
2023-01-07T17:18:20.402Z,91.20
2023-01-07T17:20:55.627Z,91.20
2023-01-07T17:23:30.012Z,91.20
2023-01-07T17:26:11.096Z,91.10
2023-01-07T17:29:05.744Z,91.20
2023-01-07T17:31:36.709Z,91.20
2023-01-07T17:34:08.406Z,91.20
2023-01-07T17:36:39.525Z,91.30
2023-01-07T17:39:11.927Z,91.20
2023-01-07T17:42:01.088Z,91.20
2023-01-07T17:44:34.333Z,91.20
2023-01-07T17:47:05.308Z,91.20
2023-01-07T17:49:36.374Z,91.20
2023-01-07T17:52:08.599Z,91.20
2023-01-07T17:54:45.129Z,91.20
2023-01-07T17:57:16.230Z,91.10
2023-01-07T17:59:49.228Z,91.10
2023-01-07T18:02:21.163Z,91.50
2023-01-07T18:04:52.147Z,91.20
2023-01-07T18:07:23.114Z,91.20
2023-01-07T18:09:54.186Z,91.10
2023-01-07T18:12:36.372Z,91.20
2023-01-07T18:15:18.446Z,91.20
2023-01-07T18:20:36.204Z,91.20
2023-01-07T18:23:13.484Z,91.10
2023-01-07T18:25:47.834Z,91.20
2023-01-07T18:28:18.862Z,91.20
2023-01-07T18:30:51.261Z,91.20
2023-01-07T18:33:24.975Z,91.20
2023-01-07T18:35:55.956Z,91.10
2023-01-07T18:38:26.630Z,91.20
2023-01-07T18:40:58.212Z,91.20
2023-01-07T18:43:28.924Z,91.10
2023-01-07T18:46:00.202Z,91.20
2023-01-07T18:48:31.969Z,91.10
2023-01-07T18:51:02.975Z,91.10
2023-01-07T18:53:33.864Z,91.10
2023-01-07T18:56:10.215Z,91.10
2023-01-07T18:58:46.468Z,91.10
2023-01-07T19:01:17.855Z,91.20
2023-01-07T19:03:49.301Z,91.10
2023-01-07T19:06:20.325Z,91.10
2023-01-07T19:09:04.073Z,91.10
2023-01-07T19:11:35.039Z,91.10
2023-01-07T19:14:05.871Z,91.10
2023-01-07T19:16:39.050Z,91.00
2023-01-07T19:19:10.719Z,91.10
2023-01-07T19:24:32.575Z,91.00
2023-01-07T19:27:05.023Z,91.40
2023-01-07T19:29:36.022Z,91.10
2023-01-07T19:32:13.612Z,91.10
2023-01-07T19:34:44.436Z,91.00
2023-01-07T19:40:04.227Z,91.00
2023-01-07T19:42:35.928Z,91.10
2023-01-07T19:45:28.369Z,91.00
2023-01-07T19:48:00.196Z,91.00
2023-01-07T19:50:31.124Z,91.00
2023-01-07T19:53:02.279Z,91.00
2023-01-07T19:55:32.996Z,91.10
2023-01-07T19:58:03.851Z,91.00
2023-01-07T20:00:34.822Z,90.90
2023-01-07T20:03:05.612Z,91.00
2023-01-07T20:05:36.541Z,91.00
2023-01-07T20:08:07.522Z,91.00
2023-01-07T20:10:38.562Z,91.00
2023-01-07T20:13:11.893Z,91.10
2023-01-07T20:15:42.747Z,91.10
2023-01-07T20:18:16.528Z,91.00
2023-01-07T20:21:00.970Z,91.00
2023-01-07T20:23:31.991Z,91.00
2023-01-07T20:26:03.492Z,90.90
2023-01-07T20:28:34.429Z,91.00
2023-01-07T20:31:10.842Z,91.00
2023-01-07T20:33:42.407Z,90.90
2023-01-07T20:36:15.978Z,90.80
2023-01-07T20:38:48.029Z,91.00
2023-01-07T20:41:24.167Z,90.90
2023-01-07T20:44:00.485Z,90.90
2023-01-07T20:46:32.280Z,90.90
2023-01-07T20:49:03.476Z,91.00
2023-01-07T20:51:35.391Z,91.00
2023-01-07T20:54:06.753Z,91.00
2023-01-07T20:56:37.732Z,91.10
2023-01-07T20:59:08.787Z,91.00
2023-01-07T21:01:40.105Z,91.00
2023-01-07T21:04:11.352Z,91.00
2023-01-07T21:06:43.596Z,91.00
2023-01-07T21:09:14.623Z,91.00
2023-01-07T21:11:46.125Z,91.00
2023-01-07T21:14:17.016Z,91.00
2023-01-07T21:16:48.100Z,91.00
2023-01-07T21:19:19.176Z,91.00
2023-01-07T21:21:52.132Z,91.00
2023-01-07T21:24:23.015Z,91.10
2023-01-07T21:26:53.953Z,91.00
2023-01-07T21:29:44.355Z,91.00
2023-01-07T21:32:35.101Z,91.00
2023-01-07T21:35:07.662Z,91.00
2023-01-07T21:37:38.544Z,91.00
2023-01-07T21:40:10.536Z,91.00
2023-01-07T21:42:41.615Z,91.10
2023-01-07T21:45:12.608Z,91.00
2023-01-07T21:47:43.681Z,90.90
2023-01-07T21:50:16.272Z,91.00
2023-01-07T21:52:46.884Z,91.00
2023-01-07T21:55:17.665Z,91.00
2023-01-07T21:57:48.772Z,91.00
2023-01-07T22:00:19.623Z,91.00
2023-01-07T22:03:09.887Z,91.00
2023-01-07T22:05:42.093Z,91.00
2023-01-07T22:08:12.785Z,91.00
2023-01-07T22:10:52.819Z,91.00
2023-01-07T22:13:27.420Z,91.00
2023-01-07T22:16:18.010Z,91.00
2023-01-07T22:18:49.401Z,90.90
2023-01-07T22:21:20.694Z,90.90
2023-01-07T22:23:51.969Z,91.00
2023-01-07T22:26:42.886Z,91.10
2023-01-07T22:29:14.887Z,90.90
2023-01-07T22:31:49.677Z,90.90
2023-01-07T22:34:21.031Z,91.00
2023-01-07T22:37:16.141Z,90.90
2023-01-07T22:40:13.600Z,90.90
2023-01-07T22:42:53.309Z,91.10
2023-01-07T22:45:52.173Z,91.00
2023-01-07T22:48:28.823Z,90.90
2023-01-07T22:51:08.712Z,90.90
2023-01-07T22:53:39.766Z,91.00
2023-01-07T22:56:10.914Z,91.00
2023-01-07T22:58:41.920Z,91.00
2023-01-07T23:01:22.663Z,91.00
2023-01-07T23:03:53.411Z,90.80
2023-01-07T23:06:25.672Z,91.00
2023-01-07T23:08:56.372Z,90.90
2023-01-07T23:11:49.675Z,91.00
2023-01-07T23:14:25.363Z,91.10
2023-01-07T23:16:56.925Z,91.10
2023-01-07T23:19:28.535Z,91.00
2023-01-07T23:22:20.715Z,90.90
2023-01-07T23:33:25.791Z,91.20
2023-01-07T23:36:07.028Z,91.00
2023-01-07T23:38:39.607Z,91.00
2023-01-07T23:41:31.559Z,91.00
2023-01-07T23:44:03.481Z,90.90
2023-01-07T23:46:50.187Z,91.10
2023-01-07T23:49:20.948Z,91.00
2023-01-07T23:51:51.593Z,91.00
2023-01-07T23:54:22.404Z,90.90
2023-01-07T23:57:06.827Z,90.90
2023-01-07T23:59:39.814Z,91.10
